sensor_id;sensor_type;location;lat;lon;timestamp;P1;durP1;ratioP1;P2;durP2;ratioP2
49824;SDS011;35714;55.708;37.478;2022-07-17T00:01:28;5.30;;;1.88;;
49824;SDS011;35714;55.708;37.478;2022-07-17T00:03:53;7.32;;;1.90;;
49824;SDS011;35714;55.708;37.478;2022-07-17T00:06:19;7.70;;;1.63;;
49824;SDS011;35714;55.708;37.478;2022-07-17T00:08:44;4.68;;;1.63;;
49824;SDS011;35714;55.708;37.478;2022-07-17T00:11:10;7.75;;;1.92;;
49824;SDS011;35714;55.708;37.478;2022-07-17T00:13:35;6.13;;;2.03;;
49824;SDS011;35714;55.708;37.478;2022-07-17T00:16:01;7.07;;;2.08;;
49824;SDS011;35714;55.708;37.478;2022-07-17T00:18:26;8.77;;;2.45;;
49824;SDS011;35714;55.708;37.478;2022-07-17T00:20:52;5.90;;;2.17;;
49824;SDS011;35714;55.708;37.478;2022-07-17T00:23:17;6.85;;;2.30;;
49824;SDS011;35714;55.708;37.478;2022-07-17T00:25:44;6.93;;;2.17;;
49824;SDS011;35714;55.708;37.478;2022-07-17T00:28:09;5.30;;;2.13;;
49824;SDS011;35714;55.708;37.478;2022-07-17T00:30:35;7.45;;;2.13;;
49824;SDS011;35714;55.708;37.478;2022-07-17T00:33:00;6.95;;;1.88;;
49824;SDS011;35714;55.708;37.478;2022-07-17T00:35:26;7.38;;;2.13;;
49824;SDS011;35714;55.708;37.478;2022-07-17T00:37:52;6.88;;;2.35;;
49824;SDS011;35714;55.708;37.478;2022-07-17T00:40:19;6.95;;;2.03;;
49824;SDS011;35714;55.708;37.478;2022-07-17T00:42:45;6.97;;;1.83;;
49824;SDS011;35714;55.708;37.478;2022-07-17T00:45:11;8.57;;;2.28;;
49824;SDS011;35714;55.708;37.478;2022-07-17T00:50:28;6.95;;;2.50;;
49824;SDS011;35714;55.708;37.478;2022-07-17T00:52:53;6.45;;;1.63;;
49824;SDS011;35714;55.708;37.478;2022-07-17T00:55:19;10.55;;;2.15;;
49824;SDS011;35714;55.708;37.478;2022-07-17T00:57:46;5.00;;;1.83;;
49824;SDS011;35714;55.708;37.478;2022-07-17T01:00:11;5.22;;;1.70;;
49824;SDS011;35714;55.708;37.478;2022-07-17T01:02:37;10.52;;;2.10;;
49824;SDS011;35714;55.708;37.478;2022-07-17T01:05:04;8.32;;;2.10;;
49824;SDS011;35714;55.708;37.478;2022-07-17T01:07:29;5.22;;;1.65;;
49824;SDS011;35714;55.708;37.478;2022-07-17T01:09:55;7.82;;;1.92;;
49824;SDS011;35714;55.708;37.478;2022-07-17T01:12:21;9.02;;;2.33;;
49824;SDS011;35714;55.708;37.478;2022-07-17T01:14:47;8.63;;;2.40;;
49824;SDS011;35714;55.708;37.478;2022-07-17T01:17:12;6.85;;;2.20;;
49824;SDS011;35714;55.708;37.478;2022-07-17T01:19:38;7.25;;;2.38;;
49824;SDS011;35714;55.708;37.478;2022-07-17T01:22:03;9.25;;;2.40;;
49824;SDS011;35714;55.708;37.478;2022-07-17T01:24:29;9.05;;;2.97;;
49824;SDS011;35714;55.708;37.478;2022-07-17T01:26:55;11.25;;;2.67;;
49824;SDS011;35714;55.708;37.478;2022-07-17T01:29:20;6.35;;;2.55;;
49824;SDS011;35714;55.708;37.478;2022-07-17T01:31:46;8.13;;;2.00;;
49824;SDS011;35714;55.708;37.478;2022-07-17T01:34:12;4.47;;;1.80;;
49824;SDS011;35714;55.708;37.478;2022-07-17T01:36:40;5.25;;;1.90;;
49824;SDS011;35714;55.708;37.478;2022-07-17T01:39:06;5.72;;;1.70;;
49824;SDS011;35714;55.708;37.478;2022-07-17T01:41:32;5.05;;;1.90;;
49824;SDS011;35714;55.708;37.478;2022-07-17T01:43:58;6.57;;;2.20;;
49824;SDS011;35714;55.708;37.478;2022-07-17T01:46:24;7.00;;;2.85;;
49824;SDS011;35714;55.708;37.478;2022-07-17T01:48:50;6.28;;;2.50;;
49824;SDS011;35714;55.708;37.478;2022-07-17T01:51:16;9.70;;;2.90;;
49824;SDS011;35714;55.708;37.478;2022-07-17T01:53:41;9.18;;;2.40;;
49824;SDS011;35714;55.708;37.478;2022-07-17T01:56:07;8.00;;;3.05;;
49824;SDS011;35714;55.708;37.478;2022-07-17T01:58:33;8.05;;;2.90;;
49824;SDS011;35714;55.708;37.478;2022-07-17T02:00:58;8.20;;;2.60;;
49824;SDS011;35714;55.708;37.478;2022-07-17T02:03:24;7.63;;;2.42;;
49824;SDS011;35714;55.708;37.478;2022-07-17T02:05:49;9.32;;;2.50;;
49824;SDS011;35714;55.708;37.478;2022-07-17T02:08:15;8.95;;;2.65;;
49824;SDS011;35714;55.708;37.478;2022-07-17T02:10:40;13.98;;;2.67;;
49824;SDS011;35714;55.708;37.478;2022-07-17T02:13:06;8.93;;;2.60;;
49824;SDS011;35714;55.708;37.478;2022-07-17T02:15:32;8.30;;;2.22;;
49824;SDS011;35714;55.708;37.478;2022-07-17T02:17:57;10.02;;;2.45;;
49824;SDS011;35714;55.708;37.478;2022-07-17T02:20:23;8.63;;;2.60;;
49824;SDS011;35714;55.708;37.478;2022-07-17T02:22:49;5.57;;;2.53;;
49824;SDS011;35714;55.708;37.478;2022-07-17T02:25:15;9.20;;;2.53;;
49824;SDS011;35714;55.708;37.478;2022-07-17T02:27:41;4.90;;;2.20;;
49824;SDS011;35714;55.708;37.478;2022-07-17T02:30:11;8.60;;;2.10;;
49824;SDS011;35714;55.708;37.478;2022-07-17T02:32:37;7.93;;;2.53;;
49824;SDS011;35714;55.708;37.478;2022-07-17T02:35:03;7.10;;;3.85;;
49824;SDS011;35714;55.708;37.478;2022-07-17T02:37:29;12.20;;;3.63;;
49824;SDS011;35714;55.708;37.478;2022-07-17T02:39:55;6.93;;;2.17;;
49824;SDS011;35714;55.708;37.478;2022-07-17T02:42:25;5.80;;;2.45;;
49824;SDS011;35714;55.708;37.478;2022-07-17T02:44:51;6.75;;;2.70;;
49824;SDS011;35714;55.708;37.478;2022-07-17T02:47:20;6.72;;;2.30;;
49824;SDS011;35714;55.708;37.478;2022-07-17T02:49:46;4.68;;;2.10;;
49824;SDS011;35714;55.708;37.478;2022-07-17T02:52:12;7.57;;;2.22;;
49824;SDS011;35714;55.708;37.478;2022-07-17T02:54:38;7.88;;;2.47;;
49824;SDS011;35714;55.708;37.478;2022-07-17T02:57:03;9.25;;;2.33;;
49824;SDS011;35714;55.708;37.478;2022-07-17T02:59:29;6.88;;;2.45;;
49824;SDS011;35714;55.708;37.478;2022-07-17T03:01:55;11.70;;;2.45;;
49824;SDS011;35714;55.708;37.478;2022-07-17T03:04:20;5.85;;;2.40;;
49824;SDS011;35714;55.708;37.478;2022-07-17T03:06:46;10.80;;;2.35;;
49824;SDS011;35714;55.708;37.478;2022-07-17T03:09:11;8.15;;;2.28;;
49824;SDS011;35714;55.708;37.478;2022-07-17T03:11:37;6.32;;;2.35;;
49824;SDS011;35714;55.708;37.478;2022-07-17T03:14:02;6.05;;;1.98;;
49824;SDS011;35714;55.708;37.478;2022-07-17T03:16:28;6.03;;;1.98;;
49824;SDS011;35714;55.708;37.478;2022-07-17T03:18:53;6.57;;;2.00;;
49824;SDS011;35714;55.708;37.478;2022-07-17T03:21:19;7.10;;;2.50;;
49824;SDS011;35714;55.708;37.478;2022-07-17T03:23:45;8.15;;;2.70;;
49824;SDS011;35714;55.708;37.478;2022-07-17T03:26:10;5.35;;;2.20;;
49824;SDS011;35714;55.708;37.478;2022-07-17T03:28:36;5.05;;;1.95;;
49824;SDS011;35714;55.708;37.478;2022-07-17T03:31:01;5.88;;;2.13;;
49824;SDS011;35714;55.708;37.478;2022-07-17T03:33:27;8.82;;;2.28;;
49824;SDS011;35714;55.708;37.478;2022-07-17T03:35:52;6.38;;;2.58;;
49824;SDS011;35714;55.708;37.478;2022-07-17T03:38:18;6.05;;;2.25;;
49824;SDS011;35714;55.708;37.478;2022-07-17T03:40:43;8.00;;;2.30;;
49824;SDS011;35714;55.708;37.478;2022-07-17T03:43:09;7.70;;;2.50;;
49824;SDS011;35714;55.708;37.478;2022-07-17T03:45:34;5.32;;;2.00;;
49824;SDS011;35714;55.708;37.478;2022-07-17T03:48:00;7.07;;;2.38;;
49824;SDS011;35714;55.708;37.478;2022-07-17T03:50:26;7.95;;;2.28;;
49824;SDS011;35714;55.708;37.478;2022-07-17T03:52:51;5.03;;;2.20;;
49824;SDS011;35714;55.708;37.478;2022-07-17T03:55:17;5.57;;;1.85;;
49824;SDS011;35714;55.708;37.478;2022-07-17T03:57:42;5.35;;;1.90;;
49824;SDS011;35714;55.708;37.478;2022-07-17T04:00:08;6.78;;;1.73;;
49824;SDS011;35714;55.708;37.478;2022-07-17T04:02:37;6.75;;;1.92;;
49824;SDS011;35714;55.708;37.478;2022-07-17T04:05:03;5.90;;;1.67;;
49824;SDS011;35714;55.708;37.478;2022-07-17T04:07:28;4.70;;;1.92;;
49824;SDS011;35714;55.708;37.478;2022-07-17T04:09:56;5.97;;;2.05;;
49824;SDS011;35714;55.708;37.478;2022-07-17T04:12:22;3.85;;;1.60;;
49824;SDS011;35714;55.708;37.478;2022-07-17T04:14:47;3.95;;;1.48;;
49824;SDS011;35714;55.708;37.478;2022-07-17T04:17:14;5.30;;;1.33;;
49824;SDS011;35714;55.708;37.478;2022-07-17T04:19:39;5.18;;;1.60;;
49824;SDS011;35714;55.708;37.478;2022-07-17T04:22:05;3.55;;;1.38;;
49824;SDS011;35714;55.708;37.478;2022-07-17T04:24:30;4.45;;;1.38;;
49824;SDS011;35714;55.708;37.478;2022-07-17T04:26:56;4.32;;;1.42;;
49824;SDS011;35714;55.708;37.478;2022-07-17T04:29:21;3.67;;;1.25;;
49824;SDS011;35714;55.708;37.478;2022-07-17T04:31:47;3.72;;;1.30;;
49824;SDS011;35714;55.708;37.478;2022-07-17T04:34:13;2.80;;;1.05;;
49824;SDS011;35714;55.708;37.478;2022-07-17T04:36:38;4.60;;;1.42;;
49824;SDS011;35714;55.708;37.478;2022-07-17T04:39:04;3.22;;;1.33;;
49824;SDS011;35714;55.708;37.478;2022-07-17T04:41:29;3.03;;;0.90;;
49824;SDS011;35714;55.708;37.478;2022-07-17T04:43:55;3.20;;;1.00;;
49824;SDS011;35714;55.708;37.478;2022-07-17T04:46:20;2.05;;;0.73;;
49824;SDS011;35714;55.708;37.478;2022-07-17T04:48:46;2.80;;;1.00;;
49824;SDS011;35714;55.708;37.478;2022-07-17T04:51:11;3.38;;;1.50;;
49824;SDS011;35714;55.708;37.478;2022-07-17T04:53:37;4.78;;;1.55;;
49824;SDS011;35714;55.708;37.478;2022-07-17T04:56:03;4.78;;;2.80;;
49824;SDS011;35714;55.708;37.478;2022-07-17T04:58:29;5.00;;;2.72;;
49824;SDS011;35714;55.708;37.478;2022-07-17T05:00:54;4.28;;;1.85;;
49824;SDS011;35714;55.708;37.478;2022-07-17T05:03:20;4.47;;;2.00;;
49824;SDS011;35714;55.708;37.478;2022-07-17T05:05:45;2.97;;;1.40;;
49824;SDS011;35714;55.708;37.478;2022-07-17T05:08:11;4.40;;;1.77;;
49824;SDS011;35714;55.708;37.478;2022-07-17T05:10:36;4.18;;;1.20;;
49824;SDS011;35714;55.708;37.478;2022-07-17T05:13:02;3.75;;;1.33;;
49824;SDS011;35714;55.708;37.478;2022-07-17T05:15:27;5.30;;;1.48;;
49824;SDS011;35714;55.708;37.478;2022-07-17T05:17:53;3.95;;;1.25;;
49824;SDS011;35714;55.708;37.478;2022-07-17T05:20:18;3.67;;;1.35;;
49824;SDS011;35714;55.708;37.478;2022-07-17T05:22:44;3.10;;;1.20;;
49824;SDS011;35714;55.708;37.478;2022-07-17T05:25:09;3.75;;;1.38;;
49824;SDS011;35714;55.708;37.478;2022-07-17T05:27:36;4.55;;;1.30;;
49824;SDS011;35714;55.708;37.478;2022-07-17T05:30:02;9.02;;;1.17;;
49824;SDS011;35714;55.708;37.478;2022-07-17T05:32:29;2.85;;;0.80;;
49824;SDS011;35714;55.708;37.478;2022-07-17T05:34:54;3.83;;;1.10;;
49824;SDS011;35714;55.708;37.478;2022-07-17T05:37:20;4.25;;;1.00;;
49824;SDS011;35714;55.708;37.478;2022-07-17T05:39:46;3.88;;;1.10;;
49824;SDS011;35714;55.708;37.478;2022-07-17T05:42:11;2.42;;;1.00;;
49824;SDS011;35714;55.708;37.478;2022-07-17T05:44:37;5.95;;;0.90;;
49824;SDS011;35714;55.708;37.478;2022-07-17T05:47:03;4.03;;;1.08;;
49824;SDS011;35714;55.708;37.478;2022-07-17T05:49:28;2.20;;;0.82;;
49824;SDS011;35714;55.708;37.478;2022-07-17T05:51:54;4.40;;;0.73;;
49824;SDS011;35714;55.708;37.478;2022-07-17T05:54:19;3.17;;;0.70;;
49824;SDS011;35714;55.708;37.478;2022-07-17T05:56:45;3.35;;;1.00;;
49824;SDS011;35714;55.708;37.478;2022-07-17T05:59:10;5.85;;;0.80;;
49824;SDS011;35714;55.708;37.478;2022-07-17T06:01:36;3.25;;;1.10;;
49824;SDS011;35714;55.708;37.478;2022-07-17T06:04:01;2.13;;;0.70;;
49824;SDS011;35714;55.708;37.478;2022-07-17T06:06:27;2.88;;;0.70;;
49824;SDS011;35714;55.708;37.478;2022-07-17T06:08:52;3.45;;;0.68;;
49824;SDS011;35714;55.708;37.478;2022-07-17T06:11:18;2.50;;;0.70;;
49824;SDS011;35714;55.708;37.478;2022-07-17T06:13:43;1.30;;;0.40;;
49824;SDS011;35714;55.708;37.478;2022-07-17T06:16:09;1.50;;;0.50;;
49824;SDS011;35714;55.708;37.478;2022-07-17T06:18:34;4.53;;;0.50;;
49824;SDS011;35714;55.708;37.478;2022-07-17T06:21:00;2.22;;;0.30;;
49824;SDS011;35714;55.708;37.478;2022-07-17T06:23:26;2.35;;;0.90;;
49824;SDS011;35714;55.708;37.478;2022-07-17T06:25:51;3.97;;;0.80;;
49824;SDS011;35714;55.708;37.478;2022-07-17T06:28:17;3.30;;;1.00;;
49824;SDS011;35714;55.708;37.478;2022-07-17T06:30:42;2.00;;;0.70;;
49824;SDS011;35714;55.708;37.478;2022-07-17T06:33:08;2.22;;;0.75;;
49824;SDS011;35714;55.708;37.478;2022-07-17T06:35:33;1.60;;;0.60;;
49824;SDS011;35714;55.708;37.478;2022-07-17T06:37:59;3.17;;;1.00;;
49824;SDS011;35714;55.708;37.478;2022-07-17T06:40:25;4.75;;;0.82;;
49824;SDS011;35714;55.708;37.478;2022-07-17T06:42:50;1.80;;;0.50;;
49824;SDS011;35714;55.708;37.478;2022-07-17T06:45:16;1.52;;;0.40;;
49824;SDS011;35714;55.708;37.478;2022-07-17T06:47:41;1.83;;;0.40;;
49824;SDS011;35714;55.708;37.478;2022-07-17T06:50:07;1.15;;;0.35;;
49824;SDS011;35714;55.708;37.478;2022-07-17T06:52:33;2.35;;;0.50;;
49824;SDS011;35714;55.708;37.478;2022-07-17T06:54:59;2.22;;;0.40;;
49824;SDS011;35714;55.708;37.478;2022-07-17T06:57:24;1.92;;;0.55;;
49824;SDS011;35714;55.708;37.478;2022-07-17T06:59:50;2.70;;;0.63;;
49824;SDS011;35714;55.708;37.478;2022-07-17T07:02:15;2.88;;;0.80;;
49824;SDS011;35714;55.708;37.478;2022-07-17T07:04:41;5.47;;;1.10;;
49824;SDS011;35714;55.708;37.478;2022-07-17T07:07:09;2.30;;;0.52;;
49824;SDS011;35714;55.708;37.478;2022-07-17T07:09:34;1.98;;;0.47;;
49824;SDS011;35714;55.708;37.478;2022-07-17T07:12:00;4.10;;;0.90;;
49824;SDS011;35714;55.708;37.478;2022-07-17T07:14:25;2.90;;;0.60;;
49824;SDS011;35714;55.708;37.478;2022-07-17T07:16:51;3.05;;;0.60;;
49824;SDS011;35714;55.708;37.478;2022-07-17T07:19:17;2.97;;;0.60;;
49824;SDS011;35714;55.708;37.478;2022-07-17T07:21:42;5.90;;;0.90;;
49824;SDS011;35714;55.708;37.478;2022-07-17T07:24:08;3.10;;;1.30;;
49824;SDS011;35714;55.708;37.478;2022-07-17T07:26:33;3.42;;;1.08;;
49824;SDS011;35714;55.708;37.478;2022-07-17T07:28:59;2.50;;;0.88;;
49824;SDS011;35714;55.708;37.478;2022-07-17T07:31:24;3.25;;;0.75;;
49824;SDS011;35714;55.708;37.478;2022-07-17T07:33:50;3.75;;;0.80;;
49824;SDS011;35714;55.708;37.478;2022-07-17T07:36:15;6.93;;;1.08;;
49824;SDS011;35714;55.708;37.478;2022-07-17T07:38:41;7.38;;;0.80;;
49824;SDS011;35714;55.708;37.478;2022-07-17T07:41:06;3.00;;;0.60;;
49824;SDS011;35714;55.708;37.478;2022-07-17T07:43:32;3.80;;;0.80;;
49824;SDS011;35714;55.708;37.478;2022-07-17T07:45:58;1.75;;;0.50;;
49824;SDS011;35714;55.708;37.478;2022-07-17T07:48:23;4.60;;;0.50;;
49824;SDS011;35714;55.708;37.478;2022-07-17T07:50:49;1.73;;;0.50;;
49824;SDS011;35714;55.708;37.478;2022-07-17T07:53:15;3.65;;;0.63;;
49824;SDS011;35714;55.708;37.478;2022-07-17T07:55:41;5.43;;;0.57;;
49824;SDS011;35714;55.708;37.478;2022-07-17T07:58:10;2.97;;;0.60;;
49824;SDS011;35714;55.708;37.478;2022-07-17T08:00:37;4.10;;;0.60;;
49824;SDS011;35714;55.708;37.478;2022-07-17T08:03:03;1.98;;;0.50;;
49824;SDS011;35714;55.708;37.478;2022-07-17T08:05:29;1.73;;;0.50;;
49824;SDS011;35714;55.708;37.478;2022-07-17T08:07:55;3.75;;;0.57;;
49824;SDS011;35714;55.708;37.478;2022-07-17T08:10:21;2.70;;;0.88;;
49824;SDS011;35714;55.708;37.478;2022-07-17T08:12:46;2.95;;;1.30;;
49824;SDS011;35714;55.708;37.478;2022-07-17T08:15:12;4.20;;;0.88;;
49824;SDS011;35714;55.708;37.478;2022-07-17T08:17:38;1.90;;;0.50;;
49824;SDS011;35714;55.708;37.478;2022-07-17T08:20:04;4.57;;;1.13;;
49824;SDS011;35714;55.708;37.478;2022-07-17T08:22:30;3.28;;;1.40;;
49824;SDS011;35714;55.708;37.478;2022-07-17T08:24:55;1.95;;;0.45;;
49824;SDS011;35714;55.708;37.478;2022-07-17T08:27:21;2.47;;;0.75;;
49824;SDS011;35714;55.708;37.478;2022-07-17T08:29:47;3.90;;;1.00;;
49824;SDS011;35714;55.708;37.478;2022-07-17T08:32:13;1.98;;;0.60;;
49824;SDS011;35714;55.708;37.478;2022-07-17T08:34:38;5.60;;;0.70;;
49824;SDS011;35714;55.708;37.478;2022-07-17T08:37:04;2.53;;;0.80;;
49824;SDS011;35714;55.708;37.478;2022-07-17T08:39:29;2.60;;;0.60;;
49824;SDS011;35714;55.708;37.478;2022-07-17T08:41:55;1.52;;;0.50;;
49824;SDS011;35714;55.708;37.478;2022-07-17T08:44:20;2.95;;;0.70;;
49824;SDS011;35714;55.708;37.478;2022-07-17T08:46:46;2.53;;;0.60;;
49824;SDS011;35714;55.708;37.478;2022-07-17T08:49:13;2.75;;;1.15;;
49824;SDS011;35714;55.708;37.478;2022-07-17T08:51:39;2.70;;;0.50;;
49824;SDS011;35714;55.708;37.478;2022-07-17T08:54:04;1.65;;;0.50;;
49824;SDS011;35714;55.708;37.478;2022-07-17T08:56:30;1.60;;;0.57;;
49824;SDS011;35714;55.708;37.478;2022-07-17T08:58:55;4.70;;;0.70;;
49824;SDS011;35714;55.708;37.478;2022-07-17T09:01:21;2.08;;;0.65;;
49824;SDS011;35714;55.708;37.478;2022-07-17T09:04:20;3.83;;;0.95;;
49824;SDS011;35714;55.708;37.478;2022-07-17T09:06:39;3.85;;;0.77;;
49824;SDS011;35714;55.708;37.478;2022-07-17T09:11:40;2.55;;;0.75;;
49824;SDS011;35714;55.708;37.478;2022-07-17T09:14:06;4.13;;;2.10;;
49824;SDS011;35714;55.708;37.478;2022-07-17T09:16:31;2.00;;;0.82;;
49824;SDS011;35714;55.708;37.478;2022-07-17T09:18:59;3.50;;;1.30;;
49824;SDS011;35714;55.708;37.478;2022-07-17T09:21:27;3.03;;;0.40;;
49824;SDS011;35714;55.708;37.478;2022-07-17T09:23:57;1.60;;;0.50;;
49824;SDS011;35714;55.708;37.478;2022-07-17T09:26:23;1.90;;;0.68;;
49824;SDS011;35714;55.708;37.478;2022-07-17T09:28:48;2.95;;;0.45;;
49824;SDS011;35714;55.708;37.478;2022-07-17T09:31:23;1.48;;;0.60;;
49824;SDS011;35714;55.708;37.478;2022-07-17T09:33:48;3.85;;;0.70;;
49824;SDS011;35714;55.708;37.478;2022-07-17T09:36:14;2.13;;;0.55;;
49824;SDS011;35714;55.708;37.478;2022-07-17T09:38:40;4.68;;;0.63;;
49824;SDS011;35714;55.708;37.478;2022-07-17T09:43:38;1.92;;;0.60;;
49824;SDS011;35714;55.708;37.478;2022-07-17T09:46:04;2.05;;;0.70;;
49824;SDS011;35714;55.708;37.478;2022-07-17T09:48:30;6.70;;;0.90;;
49824;SDS011;35714;55.708;37.478;2022-07-17T09:50:56;4.68;;;0.85;;
49824;SDS011;35714;55.708;37.478;2022-07-17T09:53:22;3.90;;;0.95;;
49824;SDS011;35714;55.708;37.478;2022-07-17T09:55:48;2.13;;;0.80;;
49824;SDS011;35714;55.708;37.478;2022-07-17T09:58:16;3.53;;;1.00;;
49824;SDS011;35714;55.708;37.478;2022-07-17T10:00:45;4.85;;;1.33;;
49824;SDS011;35714;55.708;37.478;2022-07-17T10:03:10;6.55;;;1.05;;
49824;SDS011;35714;55.708;37.478;2022-07-17T10:05:36;3.35;;;1.10;;
49824;SDS011;35714;55.708;37.478;2022-07-17T10:08:01;4.47;;;2.20;;
49824;SDS011;35714;55.708;37.478;2022-07-17T10:10:27;3.25;;;0.88;;
49824;SDS011;35714;55.708;37.478;2022-07-17T10:12:53;3.17;;;0.80;;
49824;SDS011;35714;55.708;37.478;2022-07-17T10:15:18;2.53;;;0.60;;
49824;SDS011;35714;55.708;37.478;2022-07-17T10:17:48;1.98;;;0.68;;
49824;SDS011;35714;55.708;37.478;2022-07-17T10:20:23;1.80;;;0.70;;
49824;SDS011;35714;55.708;37.478;2022-07-17T10:25:14;2.95;;;0.70;;
49824;SDS011;35714;55.708;37.478;2022-07-17T10:27:48;2.90;;;0.90;;
49824;SDS011;35714;55.708;37.478;2022-07-17T10:30:19;2.58;;;0.93;;
49824;SDS011;35714;55.708;37.478;2022-07-17T10:32:50;2.35;;;0.90;;
49824;SDS011;35714;55.708;37.478;2022-07-17T10:35:16;3.28;;;0.70;;
49824;SDS011;35714;55.708;37.478;2022-07-17T10:37:41;2.10;;;0.50;;
49824;SDS011;35714;55.708;37.478;2022-07-17T10:40:11;4.05;;;0.70;;
49824;SDS011;35714;55.708;37.478;2022-07-17T10:50:10;2.35;;;0.75;;
49824;SDS011;35714;55.708;37.478;2022-07-17T10:52:36;3.60;;;1.30;;
49824;SDS011;35714;55.708;37.478;2022-07-17T10:55:01;1.75;;;0.68;;
49824;SDS011;35714;55.708;37.478;2022-07-17T10:57:30;1.08;;;0.50;;
49824;SDS011;35714;55.708;37.478;2022-07-17T10:59:56;2.50;;;0.70;;
49824;SDS011;35714;55.708;37.478;2022-07-17T11:02:31;2.58;;;0.80;;
49824;SDS011;35714;55.708;37.478;2022-07-17T11:05:06;3.22;;;1.05;;
49824;SDS011;35714;55.708;37.478;2022-07-17T11:07:47;5.07;;;1.55;;
49824;SDS011;35714;55.708;37.478;2022-07-17T11:10:18;2.83;;;1.15;;
49824;SDS011;35714;55.708;37.478;2022-07-17T11:12:43;2.80;;;0.85;;
49824;SDS011;35714;55.708;37.478;2022-07-17T11:15:09;3.33;;;0.85;;
49824;SDS011;35714;55.708;37.478;2022-07-17T11:17:35;3.05;;;0.85;;
49824;SDS011;35714;55.708;37.478;2022-07-17T11:20:09;2.35;;;0.88;;
49824;SDS011;35714;55.708;37.478;2022-07-17T11:22:56;3.85;;;0.85;;
49824;SDS011;35714;55.708;37.478;2022-07-17T11:25:33;6.13;;;1.02;;
49824;SDS011;35714;55.708;37.478;2022-07-17T11:28:13;3.87;;;0.70;;
49824;SDS011;35714;55.708;37.478;2022-07-17T11:30:39;3.63;;;0.75;;
49824;SDS011;35714;55.708;37.478;2022-07-17T11:33:14;1.98;;;0.70;;
49824;SDS011;35714;55.708;37.478;2022-07-17T11:35:44;2.47;;;0.90;;
49824;SDS011;35714;55.708;37.478;2022-07-17T11:38:11;2.92;;;0.85;;
49824;SDS011;35714;55.708;37.478;2022-07-17T11:40:47;2.30;;;1.00;;
49824;SDS011;35714;55.708;37.478;2022-07-17T11:43:13;2.17;;;0.80;;
49824;SDS011;35714;55.708;37.478;2022-07-17T11:45:39;4.55;;;1.00;;
49824;SDS011;35714;55.708;37.478;2022-07-17T11:48:05;1.65;;;0.70;;
49824;SDS011;35714;55.708;37.478;2022-07-17T11:50:31;1.85;;;0.68;;
49824;SDS011;35714;55.708;37.478;2022-07-17T11:53:00;2.67;;;0.93;;
49824;SDS011;35714;55.708;37.478;2022-07-17T11:55:34;3.60;;;1.55;;
49824;SDS011;35714;55.708;37.478;2022-07-17T11:58:00;4.05;;;0.70;;
49824;SDS011;35714;55.708;37.478;2022-07-17T12:00:25;2.70;;;0.68;;
49824;SDS011;35714;55.708;37.478;2022-07-17T12:03:00;2.00;;;0.90;;
49824;SDS011;35714;55.708;37.478;2022-07-17T12:05:27;4.97;;;0.80;;
49824;SDS011;35714;55.708;37.478;2022-07-17T12:07:53;2.08;;;0.85;;
49824;SDS011;35714;55.708;37.478;2022-07-17T12:10:20;3.25;;;1.10;;
49824;SDS011;35714;55.708;37.478;2022-07-17T12:15:19;5.43;;;2.60;;
49824;SDS011;35714;55.708;37.478;2022-07-17T12:17:44;2.78;;;1.00;;
49824;SDS011;35714;55.708;37.478;2022-07-17T12:20:10;2.53;;;0.98;;
49824;SDS011;35714;55.708;37.478;2022-07-17T12:22:48;2.85;;;1.00;;
49824;SDS011;35714;55.708;37.478;2022-07-17T12:25:23;2.53;;;1.10;;
49824;SDS011;35714;55.708;37.478;2022-07-17T12:27:49;4.35;;;1.30;;
49824;SDS011;35714;55.708;37.478;2022-07-17T12:30:14;5.05;;;1.00;;
49824;SDS011;35714;55.708;37.478;2022-07-17T12:32:40;2.88;;;1.45;;
49824;SDS011;35714;55.708;37.478;2022-07-17T12:35:06;2.42;;;1.02;;
49824;SDS011;35714;55.708;37.478;2022-07-17T12:37:31;2.08;;;1.00;;
49824;SDS011;35714;55.708;37.478;2022-07-17T12:39:57;2.85;;;1.00;;
49824;SDS011;35714;55.708;37.478;2022-07-17T12:42:23;2.70;;;0.77;;
49824;SDS011;35714;55.708;37.478;2022-07-17T12:44:48;3.15;;;0.85;;
49824;SDS011;35714;55.708;37.478;2022-07-17T12:47:14;2.03;;;0.88;;
49824;SDS011;35714;55.708;37.478;2022-07-17T12:49:40;1.70;;;0.80;;
49824;SDS011;35714;55.708;37.478;2022-07-17T12:52:06;4.07;;;0.80;;
49824;SDS011;35714;55.708;37.478;2022-07-17T12:54:35;2.53;;;0.82;;
49824;SDS011;35714;55.708;37.478;2022-07-17T12:57:00;3.05;;;0.90;;
49824;SDS011;35714;55.708;37.478;2022-07-17T12:59:26;2.83;;;0.80;;
49824;SDS011;35714;55.708;37.478;2022-07-17T13:01:52;3.00;;;0.88;;
49824;SDS011;35714;55.708;37.478;2022-07-17T13:04:18;3.67;;;0.80;;
49824;SDS011;35714;55.708;37.478;2022-07-17T13:06:46;2.92;;;0.77;;
49824;SDS011;35714;55.708;37.478;2022-07-17T13:09:11;1.85;;;0.70;;
49824;SDS011;35714;55.708;37.478;2022-07-17T13:11:40;2.40;;;0.90;;
49824;SDS011;35714;55.708;37.478;2022-07-17T13:14:06;2.92;;;1.15;;
49824;SDS011;35714;55.708;37.478;2022-07-17T13:16:32;2.67;;;0.88;;
49824;SDS011;35714;55.708;37.478;2022-07-17T13:18:58;2.70;;;0.90;;
49824;SDS011;35714;55.708;37.478;2022-07-17T13:21:24;2.28;;;0.80;;
49824;SDS011;35714;55.708;37.478;2022-07-17T13:23:49;3.28;;;0.75;;
49824;SDS011;35714;55.708;37.478;2022-07-17T13:26:15;2.47;;;1.00;;
49824;SDS011;35714;55.708;37.478;2022-07-17T13:28:40;5.68;;;1.67;;
49824;SDS011;35714;55.708;37.478;2022-07-17T13:31:06;3.28;;;1.33;;
49824;SDS011;35714;55.708;37.478;2022-07-17T13:33:32;3.17;;;0.90;;
49824;SDS011;35714;55.708;37.478;2022-07-17T13:35:57;3.03;;;0.98;;
49824;SDS011;35714;55.708;37.478;2022-07-17T13:38:23;2.22;;;0.75;;
49824;SDS011;35714;55.708;37.478;2022-07-17T13:40:49;7.28;;;1.23;;
49824;SDS011;35714;55.708;37.478;2022-07-17T13:43:15;4.40;;;0.85;;
49824;SDS011;35714;55.708;37.478;2022-07-17T13:45:40;4.35;;;1.02;;
49824;SDS011;35714;55.708;37.478;2022-07-17T13:48:06;3.38;;;0.80;;
49824;SDS011;35714;55.708;37.478;2022-07-17T13:50:32;3.58;;;1.08;;
49824;SDS011;35714;55.708;37.478;2022-07-17T13:52:57;3.17;;;0.82;;
49824;SDS011;35714;55.708;37.478;2022-07-17T13:55:24;4.20;;;1.67;;
49824;SDS011;35714;55.708;37.478;2022-07-17T13:57:50;3.67;;;1.13;;
49824;SDS011;35714;55.708;37.478;2022-07-17T14:00:16;3.05;;;1.13;;
49824;SDS011;35714;55.708;37.478;2022-07-17T14:02:43;2.45;;;0.80;;
49824;SDS011;35714;55.708;37.478;2022-07-17T14:05:08;2.30;;;0.77;;
49824;SDS011;35714;55.708;37.478;2022-07-17T14:07:34;2.53;;;0.90;;
49824;SDS011;35714;55.708;37.478;2022-07-17T14:10:00;3.30;;;1.20;;
49824;SDS011;35714;55.708;37.478;2022-07-17T14:12:26;3.83;;;2.03;;
49824;SDS011;35714;55.708;37.478;2022-07-17T14:14:51;3.53;;;1.67;;
49824;SDS011;35714;55.708;37.478;2022-07-17T14:17:17;4.10;;;0.75;;
49824;SDS011;35714;55.708;37.478;2022-07-17T14:19:43;1.98;;;0.73;;
49824;SDS011;35714;55.708;37.478;2022-07-17T14:22:09;4.57;;;0.93;;
49824;SDS011;35714;55.708;37.478;2022-07-17T14:24:34;3.85;;;1.15;;
49824;SDS011;35714;55.708;37.478;2022-07-17T14:27:00;4.50;;;1.00;;
49824;SDS011;35714;55.708;37.478;2022-07-17T14:29:25;2.08;;;0.77;;
49824;SDS011;35714;55.708;37.478;2022-07-17T14:31:51;3.03;;;0.77;;
49824;SDS011;35714;55.708;37.478;2022-07-17T14:34:17;7.00;;;1.70;;
49824;SDS011;35714;55.708;37.478;2022-07-17T14:36:43;8.48;;;2.67;;
49824;SDS011;35714;55.708;37.478;2022-07-17T14:39:09;8.23;;;2.65;;
49824;SDS011;35714;55.708;37.478;2022-07-17T14:41:35;5.88;;;1.60;;
49824;SDS011;35714;55.708;37.478;2022-07-17T14:44:00;6.95;;;1.00;;
49824;SDS011;35714;55.708;37.478;2022-07-17T14:46:26;8.77;;;4.55;;
49824;SDS011;35714;55.708;37.478;2022-07-17T14:48:54;7.50;;;3.50;;